createdAt,value
2023-03-05T00:01:25.782Z,39.20
2023-03-05T00:03:56.435Z,45.50
2023-03-05T00:06:25.872Z,41.27
2023-03-05T00:08:56.714Z,42.37
2023-03-05T00:11:25.750Z,42.07
2023-03-05T00:13:54.387Z,47.13
2023-03-05T00:16:26.744Z,42.23
2023-03-05T00:18:57.247Z,42.97
2023-03-05T00:21:26.452Z,43.63
2023-03-05T00:23:55.562Z,43.33
2023-03-05T00:26:26.044Z,46.03
2023-03-05T00:28:54.466Z,44.20
2023-03-05T00:31:24.329Z,44.33
2023-03-05T00:33:53.847Z,43.30
2023-03-05T00:36:24.512Z,40.93
2023-03-05T00:38:52.953Z,39.97
2023-03-05T00:41:21.620Z,44.60
2023-03-05T00:43:50.372Z,44.00
2023-03-05T00:46:19.049Z,44.43
2023-03-05T00:48:47.484Z,41.80
2023-03-05T00:51:15.908Z,42.87
2023-03-05T00:53:45.812Z,44.43
2023-03-05T00:56:14.224Z,41.17
2023-03-05T00:58:42.635Z,45.33
2023-03-05T01:01:11.099Z,42.80
2023-03-05T01:03:39.705Z,45.83
2023-03-05T01:06:09.597Z,45.33
2023-03-05T01:08:38.825Z,43.70
2023-03-05T01:11:09.107Z,44.43
2023-03-05T01:13:37.672Z,47.53
2023-03-05T01:16:06.839Z,44.30
2023-03-05T01:18:35.472Z,40.83
2023-03-05T01:21:03.849Z,43.97
2023-03-05T01:23:34.308Z,41.70
2023-03-05T01:26:02.920Z,47.87
2023-03-05T01:28:33.585Z,48.87
2023-03-05T01:31:02.060Z,48.57
2023-03-05T01:33:30.434Z,49.57
2023-03-05T01:35:58.828Z,46.00
2023-03-05T01:38:27.305Z,52.37
2023-03-05T01:40:55.683Z,53.20
2023-03-05T01:43:25.714Z,46.77
2023-03-05T01:46:27.352Z,57.20
2023-03-05T01:48:58.622Z,50.20
2023-03-05T01:51:28.560Z,47.30
2023-03-05T01:53:58.300Z,51.60
2023-03-05T01:56:27.138Z,52.30
2023-03-05T01:58:57.976Z,52.20
2023-03-05T02:01:26.431Z,50.33
2023-03-05T02:03:54.876Z,56.73
2023-03-05T02:06:24.663Z,47.93
2023-03-05T02:08:53.065Z,53.60
2023-03-05T02:11:21.717Z,57.53
2023-03-05T02:13:50.207Z,53.93
2023-03-05T02:16:18.650Z,58.17
2023-03-05T02:18:47.039Z,59.83
2023-03-05T02:21:28.575Z,55.07
2023-03-05T02:23:57.153Z,56.37
2023-03-05T02:26:25.705Z,54.43
2023-03-05T02:28:55.792Z,59.50
2023-03-05T02:31:25.351Z,62.53
2023-03-05T02:33:55.944Z,59.67
2023-03-05T02:36:26.219Z,56.83
2023-03-05T02:38:57.059Z,63.73
2023-03-05T02:41:25.903Z,61.33
2023-03-05T02:43:54.327Z,60.33
2023-03-05T02:46:22.764Z,57.83
2023-03-05T02:48:51.187Z,55.93
2023-03-05T02:51:19.788Z,59.87
2023-03-05T02:53:49.538Z,60.27
2023-03-05T02:56:17.944Z,56.60
2023-03-05T02:58:46.348Z,60.47
2023-03-05T03:01:14.790Z,58.83
2023-03-05T03:03:43.211Z,60.10
2023-03-05T03:06:11.660Z,59.20
2023-03-05T03:08:40.114Z,60.80
2023-03-05T03:11:12.499Z,58.93
2023-03-05T03:13:40.923Z,54.17
2023-03-05T03:16:10.901Z,59.77
2023-03-05T03:18:39.331Z,55.37
2023-03-05T03:21:07.966Z,55.17
2023-03-05T03:23:36.660Z,58.20
2023-03-05T03:26:05.086Z,58.30
2023-03-05T03:28:34.944Z,53.20
2023-03-05T03:31:03.442Z,57.70
2023-03-05T03:33:31.915Z,59.27
2023-03-05T03:36:00.429Z,52.93
2023-03-05T03:38:28.867Z,57.10
2023-03-05T03:40:57.412Z,50.07
2023-03-05T03:43:25.797Z,52.27
2023-03-05T03:45:55.682Z,52.83
2023-03-05T03:48:24.119Z,50.10
2023-03-05T03:50:52.532Z,50.50
2023-03-05T03:53:20.936Z,46.33
2023-03-05T03:55:49.385Z,49.67
2023-03-05T03:58:17.813Z,44.97
2023-03-05T04:00:46.224Z,48.10
2023-03-05T04:03:16.002Z,41.67
2023-03-05T04:05:44.390Z,47.63
2023-03-05T04:08:12.775Z,43.77
2023-03-05T04:10:41.236Z,44.53
2023-03-05T04:13:09.751Z,45.63
2023-03-05T04:15:38.195Z,41.43
2023-03-05T04:18:06.774Z,44.27
2023-03-05T04:20:36.572Z,41.33
2023-03-05T04:23:04.982Z,43.87
2023-03-05T04:25:33.408Z,49.23
2023-03-05T04:28:01.876Z,41.40
2023-03-05T04:30:31.321Z,43.90
2023-03-05T04:32:59.790Z,39.40
2023-03-05T04:35:28.214Z,39.40
2023-03-05T04:37:58.012Z,45.97
2023-03-05T04:40:26.476Z,44.60
2023-03-05T04:42:54.887Z,45.27
2023-03-05T04:45:23.328Z,42.93
2023-03-05T04:47:51.915Z,44.80
2023-03-05T04:50:20.490Z,42.00
2023-03-05T04:52:48.940Z,41.83
2023-03-05T04:55:19.397Z,40.73
2023-03-05T04:57:47.799Z,41.83
2023-03-05T05:00:17.152Z,44.10
2023-03-05T05:02:46.241Z,36.13
2023-03-05T05:05:16.231Z,36.10
2023-03-05T05:07:45.060Z,38.67
2023-03-05T05:10:14.154Z,35.20
2023-03-05T05:12:43.936Z,32.90
2023-03-05T05:15:13.799Z,32.77
2023-03-05T05:17:42.364Z,33.57
2023-03-05T05:20:12.720Z,32.90
2023-03-05T05:22:41.125Z,33.23
2023-03-05T05:25:10.449Z,30.30
2023-03-05T05:27:39.066Z,30.17
2023-03-05T05:30:10.028Z,28.40
2023-03-05T05:32:38.641Z,33.77
2023-03-05T05:35:07.531Z,30.73
2023-03-05T05:37:35.971Z,30.23
2023-03-05T05:40:06.631Z,33.57
2023-03-05T05:42:35.122Z,32.67
2023-03-05T05:45:04.009Z,31.73
2023-03-05T05:47:33.801Z,27.73
2023-03-05T05:50:02.194Z,28.47
2023-03-05T05:52:30.603Z,26.80
2023-03-05T05:54:59.292Z,27.83
2023-03-05T05:57:27.699Z,30.60
2023-03-05T05:59:56.115Z,30.03
2023-03-05T06:02:24.584Z,29.13
2023-03-05T06:04:55.413Z,31.10
2023-03-05T06:07:24.949Z,29.83
2023-03-05T06:09:53.364Z,30.87
2023-03-05T06:12:21.765Z,26.83
2023-03-05T06:14:50.168Z,31.40
2023-03-05T06:17:28.707Z,27.67
2023-03-05T06:20:01.089Z,31.33
2023-03-05T06:22:29.689Z,29.77
2023-03-05T06:24:58.210Z,27.20
2023-03-05T06:27:26.850Z,25.40
2023-03-05T06:29:56.714Z,27.30
2023-03-05T06:32:25.355Z,26.80
2023-03-05T06:34:53.774Z,27.40
2023-03-05T06:37:23.576Z,28.30
2023-03-05T06:39:51.990Z,29.70
2023-03-05T06:42:20.427Z,26.17
2023-03-05T06:44:49.041Z,25.07
2023-03-05T06:47:17.482Z,24.70
2023-03-05T06:49:45.859Z,26.23
2023-03-05T06:52:14.274Z,24.73
2023-03-05T06:54:44.030Z,25.73
2023-03-05T06:57:13.626Z,24.33
2023-03-05T06:59:42.130Z,26.63
2023-03-05T07:02:12.639Z,29.63
2023-03-05T07:04:41.112Z,25.00
2023-03-05T07:07:09.515Z,26.63
2023-03-05T07:09:42.848Z,25.40
2023-03-05T07:12:13.011Z,25.63
2023-03-05T07:14:41.388Z,29.73
2023-03-05T07:17:09.868Z,28.00
2023-03-05T07:19:38.285Z,30.50
2023-03-05T07:22:08.155Z,28.50
2023-03-05T07:24:36.791Z,24.93
2023-03-05T07:27:05.262Z,26.13
2023-03-05T07:29:35.113Z,23.40
2023-03-05T07:32:03.541Z,26.17
2023-03-05T07:34:31.974Z,22.97
2023-03-05T07:37:00.387Z,24.93
2023-03-05T07:39:28.758Z,27.73
2023-03-05T07:41:57.166Z,22.87
2023-03-05T07:44:25.530Z,26.63
2023-03-05T07:46:55.298Z,25.10
2023-03-05T07:49:23.901Z,18.97
2023-03-05T07:51:52.339Z,16.60
2023-03-05T07:54:20.785Z,21.90
2023-03-05T07:56:49.237Z,24.00
2023-03-05T07:59:17.647Z,15.13
2023-03-05T08:01:46.370Z,16.70
2023-03-05T08:04:16.327Z,19.10
2023-03-05T08:06:46.902Z,22.73
2023-03-05T08:09:15.435Z,15.77
2023-03-05T08:11:43.948Z,18.43
2023-03-05T08:14:13.486Z,25.50
2023-03-05T08:16:42.015Z,21.77
2023-03-05T08:19:12.548Z,18.63
2023-03-05T08:21:42.394Z,20.30
2023-03-05T08:24:11.179Z,21.10
2023-03-05T08:26:40.404Z,21.30
2023-03-05T08:29:09.058Z,13.73
2023-03-05T08:31:37.589Z,19.40
2023-03-05T08:34:06.452Z,18.37
2023-03-05T08:36:34.907Z,17.63
2023-03-05T08:39:06.801Z,12.77
2023-03-05T08:41:35.257Z,19.13
2023-03-05T08:44:03.790Z,19.07
2023-03-05T08:46:32.230Z,17.17
2023-03-05T08:49:00.880Z,16.23
2023-03-05T08:51:29.608Z,19.33
2023-03-05T08:53:59.688Z,19.20
2023-03-05T08:56:31.478Z,17.73
2023-03-05T08:58:59.923Z,15.57
2023-03-05T09:01:28.453Z,17.43
2023-03-05T09:03:56.904Z,22.27
2023-03-05T09:06:25.350Z,18.40
2023-03-05T09:08:53.805Z,20.43
2023-03-05T09:11:22.636Z,22.43
2023-03-05T09:13:52.450Z,21.97
2023-03-05T09:16:21.163Z,19.27
2023-03-05T09:18:49.630Z,20.00
2023-03-05T09:21:18.984Z,18.47
2023-03-05T09:23:48.088Z,19.07
2023-03-05T09:26:19.244Z,19.47
2023-03-05T09:28:48.000Z,18.67
2023-03-05T09:31:17.888Z,11.73
2023-03-05T09:33:46.377Z,15.90
2023-03-05T09:36:19.317Z,16.77
2023-03-05T09:38:47.751Z,18.77
2023-03-05T09:41:19.272Z,22.57
2023-03-05T09:43:51.736Z,18.20
2023-03-05T09:46:27.042Z,17.87
2023-03-05T09:48:56.415Z,22.87
2023-03-05T09:51:26.432Z,21.67
2023-03-05T09:54:02.383Z,20.07
2023-03-05T09:56:32.681Z,15.23
2023-03-05T09:59:04.268Z,19.07
2023-03-05T10:01:38.811Z,18.73
2023-03-05T10:04:12.464Z,23.07
2023-03-05T10:06:44.869Z,19.70
2023-03-05T10:09:16.295Z,18.30
2023-03-05T10:11:51.076Z,16.93
2023-03-05T10:14:24.599Z,18.67
2023-03-05T10:17:06.068Z,20.23
2023-03-05T10:19:49.939Z,17.80
2023-03-05T10:22:21.232Z,20.00
2023-03-05T10:25:05.076Z,20.20
2023-03-05T10:27:42.034Z,21.87
2023-03-05T10:30:20.743Z,17.80
2023-03-05T10:32:54.546Z,16.13
2023-03-05T10:35:34.242Z,20.13
2023-03-05T10:38:11.049Z,22.90
2023-03-05T10:40:42.823Z,19.63
2023-03-05T10:43:17.313Z,20.10
2023-03-05T10:45:47.460Z,18.50
2023-03-05T10:48:23.134Z,19.73
2023-03-05T10:50:53.652Z,19.73
2023-03-05T10:53:26.264Z,18.77
2023-03-05T10:55:56.547Z,18.57
2023-03-05T10:58:26.105Z,18.60
2023-03-05T11:01:05.825Z,18.77
2023-03-05T11:03:58.048Z,19.97
2023-03-05T11:06:32.228Z,17.37
2023-03-05T11:09:24.244Z,15.77
2023-03-05T11:12:08.543Z,18.87
2023-03-05T11:14:38.777Z,17.07
2023-03-05T11:17:28.159Z,17.67
2023-03-05T11:19:56.760Z,17.67
2023-03-05T11:22:27.521Z,18.70
2023-03-05T11:25:06.712Z,24.17
2023-03-05T11:27:37.232Z,19.37
2023-03-05T11:30:06.427Z,19.37
2023-03-05T11:32:34.895Z,18.57
2023-03-05T11:35:03.595Z,20.73
2023-03-05T11:37:34.106Z,16.97
2023-03-05T11:40:18.050Z,14.00
2023-03-05T11:42:46.854Z,17.33
2023-03-05T11:45:20.489Z,21.83
2023-03-05T11:47:49.959Z,17.17
2023-03-05T11:50:22.133Z,15.07
2023-03-05T11:52:53.382Z,18.47
2023-03-05T11:55:22.948Z,17.73
2023-03-05T11:57:59.048Z,19.27
2023-03-05T12:00:30.080Z,15.77
2023-03-05T12:02:59.709Z,19.53
2023-03-05T12:05:29.263Z,21.30
2023-03-05T12:08:00.221Z,15.97
2023-03-05T12:10:28.707Z,15.27
2023-03-05T12:12:59.972Z,19.10
2023-03-05T12:15:36.971Z,21.30
2023-03-05T12:18:18.605Z,16.57
2023-03-05T12:20:50.826Z,17.93
2023-03-05T12:23:22.668Z,19.67
2023-03-05T12:25:52.299Z,20.07
2023-03-05T12:28:36.410Z,18.70
2023-03-05T12:31:07.319Z,15.17
2023-03-05T12:33:38.373Z,16.73
2023-03-05T12:36:33.724Z,20.50
2023-03-05T12:39:03.797Z,13.80
2023-03-05T12:41:37.191Z,15.73
2023-03-05T12:44:12.421Z,18.23
2023-03-05T12:46:41.310Z,13.43
2023-03-05T12:49:28.363Z,11.43
2023-03-05T12:51:57.239Z,12.30
2023-03-05T12:54:29.900Z,14.53
2023-03-05T12:56:59.440Z,15.00
2023-03-05T12:59:31.552Z,10.20
2023-03-05T13:02:03.096Z,16.77
2023-03-05T13:04:32.621Z,15.33
2023-03-05T13:07:02.218Z,13.93
2023-03-05T13:09:33.713Z,15.97
2023-03-05T13:12:03.092Z,14.80
2023-03-05T13:14:34.024Z,18.33
2023-03-05T13:17:03.123Z,13.97
2023-03-05T13:19:36.066Z,17.13
2023-03-05T13:22:05.574Z,19.10
2023-03-05T13:24:35.359Z,18.87
2023-03-05T13:27:03.883Z,14.17
2023-03-05T13:29:32.412Z,14.03
2023-03-05T13:32:01.868Z,15.00
2023-03-05T13:34:44.657Z,14.40
2023-03-05T13:37:18.392Z,12.50
2023-03-05T13:39:51.399Z,14.67
2023-03-05T13:42:21.190Z,15.87
2023-03-05T13:44:55.396Z,13.97
2023-03-05T13:47:24.538Z,12.73
2023-03-05T13:49:59.940Z,15.63
2023-03-05T13:52:29.918Z,18.87
2023-03-05T13:55:00.436Z,12.10
2023-03-05T13:57:36.456Z,13.73
2023-03-05T14:00:05.846Z,13.93
2023-03-05T14:02:34.490Z,18.00
2023-03-05T14:05:03.013Z,13.87
2023-03-05T14:07:33.636Z,18.17
2023-03-05T14:10:05.592Z,15.67
2023-03-05T14:12:37.016Z,16.93
2023-03-05T14:15:07.300Z,18.03
2023-03-05T14:17:40.495Z,22.23
2023-03-05T14:20:11.746Z,23.90
2023-03-05T14:22:41.379Z,19.77
2023-03-05T14:25:24.888Z,22.20
2023-03-05T14:27:54.698Z,35.60
2023-03-05T14:30:24.490Z,37.13
2023-03-05T14:32:53.479Z,28.70
2023-03-05T14:35:23.146Z,36.77
2023-03-05T14:37:52.522Z,40.47
2023-03-05T14:40:22.648Z,36.73
2023-03-05T14:42:56.737Z,32.27
2023-03-05T14:45:26.169Z,45.30
2023-03-05T14:47:55.399Z,39.30
2023-03-05T14:50:24.530Z,36.43
2023-03-05T14:52:53.899Z,38.30
2023-03-05T14:55:24.028Z,44.07
2023-03-05T14:57:52.906Z,33.90
2023-03-05T15:00:23.893Z,40.70
2023-03-05T15:02:52.421Z,45.87
2023-03-05T15:05:20.905Z,46.97
2023-03-05T15:07:49.789Z,44.53
2023-03-05T15:10:18.622Z,49.10
2023-03-05T15:12:47.339Z,47.47
2023-03-05T15:15:15.958Z,48.00
2023-03-05T15:17:47.478Z,56.07
2023-03-05T15:20:17.746Z,53.17
2023-03-05T15:22:46.137Z,51.23
2023-03-05T15:25:14.878Z,64.93
2023-03-05T15:27:43.619Z,64.27
2023-03-05T15:30:17.987Z,69.63
2023-03-05T15:32:47.794Z,95.43
2023-03-05T15:35:16.195Z,82.37
2023-03-05T15:37:44.597Z,82.80
2023-03-05T15:40:13.662Z,95.53
2023-03-05T15:42:42.103Z,86.10
2023-03-05T15:45:11.013Z,80.00
2023-03-05T15:47:39.439Z,90.37
2023-03-05T15:50:10.046Z,74.87
2023-03-05T15:52:38.443Z,69.83
2023-03-05T15:55:07.278Z,84.43
2023-03-05T15:57:37.843Z,79.07
2023-03-05T16:00:07.438Z,73.27
2023-03-05T16:02:35.853Z,87.53
2023-03-05T16:05:04.455Z,72.33
2023-03-05T16:07:35.977Z,64.73
2023-03-05T16:10:04.807Z,76.00
2023-03-05T16:12:37.493Z,60.17
2023-03-05T16:15:06.369Z,57.77
2023-03-05T16:17:35.365Z,60.33
2023-03-05T16:20:04.432Z,52.90
2023-03-05T16:22:34.389Z,45.23
2023-03-05T16:25:02.955Z,48.33
2023-03-05T16:27:31.846Z,42.60
2023-03-05T16:30:00.251Z,44.90
2023-03-05T16:32:28.734Z,45.33
2023-03-05T16:34:57.357Z,43.60
2023-03-05T16:37:26.045Z,43.10
2023-03-05T16:39:59.449Z,37.13
2023-03-05T16:42:27.876Z,40.43
2023-03-05T16:44:56.830Z,46.93
2023-03-05T16:47:25.235Z,35.27
2023-03-05T16:49:53.709Z,31.07
2023-03-05T16:52:22.564Z,36.93
2023-03-05T16:54:50.998Z,33.83
2023-03-05T16:57:22.036Z,31.70
2023-03-05T16:59:50.419Z,33.10
2023-03-05T17:02:18.859Z,29.43
2023-03-05T17:04:47.574Z,32.93
2023-03-05T17:07:15.966Z,38.27
2023-03-05T17:09:44.493Z,27.07
2023-03-05T17:12:12.905Z,33.07
2023-03-05T17:14:42.886Z,33.20
2023-03-05T17:17:11.425Z,31.23
2023-03-05T17:19:40.294Z,36.20
2023-03-05T17:22:09.581Z,36.07
2023-03-05T17:24:38.473Z,29.03
2023-03-05T17:27:07.174Z,34.83
2023-03-05T17:29:35.660Z,32.83
2023-03-05T17:32:05.665Z,29.33
2023-03-05T17:34:36.896Z,37.27
2023-03-05T17:37:05.979Z,28.47
2023-03-05T17:39:35.151Z,24.53
2023-03-05T17:42:03.572Z,16.03
2023-03-05T17:44:31.960Z,21.40
2023-03-05T17:47:00.408Z,21.77
2023-03-05T17:49:30.191Z,27.17
2023-03-05T17:51:58.608Z,25.27
2023-03-05T17:54:27.155Z,27.27
2023-03-05T17:56:56.278Z,25.80
2023-03-05T17:59:24.953Z,29.07
2023-03-05T18:01:53.391Z,28.47
2023-03-05T18:04:21.867Z,29.93
2023-03-05T18:06:51.689Z,30.77
2023-03-05T18:09:20.117Z,28.27
2023-03-05T18:11:48.886Z,29.80
2023-03-05T18:14:17.511Z,27.03
2023-03-05T18:16:46.381Z,30.43
2023-03-05T18:19:14.845Z,28.33
2023-03-05T18:21:43.330Z,31.73
2023-03-05T18:24:13.180Z,28.67
2023-03-05T18:26:41.744Z,31.87
2023-03-05T18:29:10.127Z,28.57
2023-03-05T18:31:38.536Z,36.03
2023-03-05T18:34:06.926Z,26.13
2023-03-05T18:36:35.355Z,27.17
2023-03-05T18:39:04.175Z,26.03
2023-03-05T18:41:33.987Z,25.97
2023-03-05T18:44:04.648Z,24.83
2023-03-05T18:46:33.062Z,26.70
2023-03-05T18:49:01.473Z,26.57
2023-03-05T18:51:30.408Z,26.43
2023-03-05T18:53:58.789Z,27.77
2023-03-05T18:56:27.361Z,27.03
2023-03-05T18:58:58.881Z,26.43
2023-03-05T19:01:27.493Z,29.47
2023-03-05T19:03:56.075Z,23.77
2023-03-05T19:06:24.592Z,31.73
2023-03-05T19:08:57.461Z,28.97
2023-03-05T19:11:26.289Z,25.30
2023-03-05T19:13:56.953Z,30.77
2023-03-05T19:16:29.334Z,27.00
2023-03-05T19:19:06.378Z,26.10
2023-03-05T19:21:35.117Z,25.97
2023-03-05T19:24:03.528Z,27.03
2023-03-05T19:26:32.161Z,25.53
2023-03-05T19:29:02.078Z,28.53
2023-03-05T19:31:33.054Z,25.27
2023-03-05T19:34:01.800Z,26.47
2023-03-05T19:36:30.224Z,25.53
2023-03-05T19:38:58.630Z,27.57
2023-03-05T19:41:27.752Z,32.07
2023-03-05T19:43:56.207Z,28.43
2023-03-05T19:46:24.707Z,27.70
2023-03-05T19:48:54.531Z,29.87
2023-03-05T19:51:24.254Z,25.70
2023-03-05T19:53:52.709Z,25.90
2023-03-05T19:56:21.364Z,26.27
2023-03-05T19:58:49.838Z,26.20
2023-03-05T20:01:19.029Z,27.10
2023-03-05T20:03:47.985Z,26.33
2023-03-05T20:06:17.775Z,24.60
2023-03-05T20:08:46.162Z,22.67
2023-03-05T20:11:15.547Z,26.10
2023-03-05T20:13:44.196Z,27.30
2023-03-05T20:16:16.642Z,25.20
2023-03-05T20:18:45.191Z,26.77
2023-03-05T20:21:13.899Z,25.40
2023-03-05T20:23:43.686Z,22.87
2023-03-05T20:26:12.114Z,26.47
2023-03-05T20:28:40.876Z,26.90
2023-03-05T20:31:09.338Z,24.73
2023-03-05T20:33:37.839Z,28.67
2023-03-05T20:36:06.703Z,25.17
2023-03-05T20:38:35.107Z,25.10
2023-03-05T20:41:05.733Z,29.07
2023-03-05T20:43:35.055Z,26.90
2023-03-05T20:46:04.068Z,29.17
2023-03-05T20:48:33.422Z,32.97
2023-03-05T20:51:12.506Z,36.07
2023-03-05T20:53:41.150Z,31.10
2023-03-05T20:56:11.085Z,30.13
2023-03-05T20:58:39.521Z,30.83
2023-03-05T21:01:08.162Z,31.30
2023-03-05T21:03:37.286Z,35.00
2023-03-05T21:06:06.083Z,35.90
2023-03-05T21:08:34.532Z,42.90
2023-03-05T21:11:06.438Z,40.80
2023-03-05T21:13:36.450Z,39.80
2023-03-05T21:16:07.956Z,46.27
2023-03-05T21:18:36.556Z,45.50
2023-03-05T21:21:05.047Z,43.40
2023-03-05T21:23:33.676Z,50.23
2023-03-05T21:26:04.033Z,45.13
2023-03-05T21:28:33.202Z,45.87
2023-03-05T21:31:07.799Z,44.60
2023-03-05T21:33:36.234Z,48.90
2023-03-05T21:36:05.196Z,52.20
2023-03-05T21:38:34.713Z,47.00
2023-03-05T21:41:03.562Z,51.37
2023-03-05T21:43:32.286Z,52.30
2023-03-05T21:46:03.472Z,49.43
2023-03-05T21:48:32.286Z,48.33
2023-03-05T21:51:00.788Z,55.57
2023-03-05T21:53:29.222Z,47.77
2023-03-05T21:56:05.419Z,55.13
2023-03-05T21:58:34.384Z,55.97
2023-03-05T22:01:04.342Z,50.80
2023-03-05T22:03:32.839Z,53.63
2023-03-05T22:06:01.378Z,51.73
2023-03-05T22:08:30.136Z,50.63
2023-03-05T22:10:58.549Z,48.50
2023-03-05T22:13:26.952Z,52.07
2023-03-05T22:15:56.283Z,51.30
2023-03-05T22:18:26.843Z,49.67
2023-03-05T22:20:55.587Z,46.87
2023-03-05T22:23:25.368Z,48.03
2023-03-05T22:25:57.656Z,46.13
2023-03-05T22:28:26.390Z,44.17
2023-03-05T22:30:54.922Z,46.60
2023-03-05T22:33:23.412Z,44.37
2023-03-05T22:35:53.267Z,42.17
2023-03-05T22:38:21.937Z,43.73
2023-03-05T22:40:51.228Z,43.13
2023-03-05T22:43:20.242Z,43.60
2023-03-05T22:45:48.685Z,39.63
2023-03-05T22:48:17.121Z,39.93
2023-03-05T22:50:45.754Z,38.40
2023-03-05T22:53:15.724Z,37.17
2023-03-05T22:55:44.331Z,36.37
2023-03-05T22:58:12.801Z,34.77
2023-03-05T23:00:42.341Z,37.77
2023-03-05T23:03:11.116Z,33.83
2023-03-05T23:05:40.380Z,35.77
2023-03-05T23:08:09.355Z,35.13
2023-03-05T23:10:39.239Z,40.60
2023-03-05T23:13:07.672Z,38.77
2023-03-05T23:15:37.294Z,39.00
2023-03-05T23:18:06.635Z,38.97
2023-03-05T23:20:36.116Z,39.97
2023-03-05T23:23:04.676Z,41.50
2023-03-05T23:25:33.769Z,40.63
2023-03-05T23:28:04.137Z,39.73
2023-03-05T23:30:33.721Z,39.50
2023-03-05T23:33:04.728Z,43.20
2023-03-05T23:35:34.348Z,40.40
2023-03-05T23:38:04.274Z,40.17
2023-03-05T23:40:33.622Z,40.63
2023-03-05T23:43:03.384Z,43.73
2023-03-05T23:45:32.063Z,40.53
2023-03-05T23:48:00.821Z,38.87
2023-03-05T23:50:30.823Z,39.43
2023-03-05T23:53:01.735Z,40.57
2023-03-05T23:55:32.005Z,37.70
2023-03-05T23:58:00.444Z,36.03
